Time;durP1;ratioP1;P1;durP2;ratioP2;P2;SDS_P1;SDS_P2;PMS_P1;PMS_P2;Temp;Humidity;BMP_temperature;BMP_pressure;BME280_temperature;BME280_humidity;BME280_pressure;Samples;Min_cycle;Max_cycle;Signal;HPM_P1;HPM_P2
2023/10/15 00:00:34;;;;;;;7.50;2.28;;;7.70;99.90;;;;;;5054105;28;20173;-76
2023/10/15 00:02:59;;;;;;;7.60;2.50;;;7.60;99.90;;;;;;5052615;28;20280;-76
2023/10/15 00:05:25;;;;;;;7.30;2.53;;;7.70;99.90;;;;;;5053094;28;20196;-76
2023/10/15 00:07:51;;;;;;;7.65;2.40;;;7.50;99.90;;;;;;5049993;28;20214;-76
2023/10/15 00:10:25;;;;;;;6.50;2.53;;;7.40;99.90;;;;;;5032741;28;20182;-76
2023/10/15 00:13:32;;;;;;;8.60;2.35;;;7.40;99.90;;;;;;5032818;28;20202;-76
2023/10/15 00:15:57;;;;;;;5.10;2.30;;;7.30;99.90;;;;;;5032685;28;20248;-76
2023/10/15 00:18:23;;;;;;;6.65;2.30;;;7.30;99.90;;;;;;5033246;28;20167;-76
2023/10/15 00:20:49;;;;;;;6.25;2.25;;;7.30;99.90;;;;;;5033076;28;20228;-76
2023/10/15 00:23:14;;;;;;;6.07;2.20;;;7.20;99.90;;;;;;5033677;28;20175;-76
2023/10/15 00:25:47;;;;;;;5.80;2.13;;;7.20;99.90;;;;;;5033753;28;20248;-76
2023/10/15 00:28:15;;;;;;;6.22;2.20;;;7.20;99.90;;;;;;5032840;28;20178;-76
2023/10/15 00:30:42;;;;;;;8.68;2.88;;;7.20;99.90;;;;;;5034520;28;20266;-76
2023/10/15 00:33:11;;;;;;;6.80;2.60;;;7.20;99.90;;;;;;5032659;28;20705;-76
2023/10/15 00:35:37;;;;;;;8.02;2.35;;;7.20;99.90;;;;;;5032136;28;20194;-76
2023/10/15 00:38:19;;;;;;;4.85;2.15;;;7.20;99.90;;;;;;5035446;28;20633;-76
2023/10/15 00:40:53;;;;;;;5.85;2.35;;;7.10;99.90;;;;;;5052187;28;20625;-76
2023/10/15 00:43:19;;;;;;;4.20;2.30;;;7.10;99.90;;;;;;5052537;28;20177;-76
2023/10/15 00:45:46;;;;;;;4.65;2.08;;;7.00;99.90;;;;;;5055886;28;20178;-76
2023/10/15 00:48:19;;;;;;;5.25;2.17;;;7.00;99.90;;;;;;5056016;28;20190;-76
2023/10/15 00:50:45;;;;;;;6.57;2.50;;;7.00;99.90;;;;;;5056125;28;20177;-76
2023/10/15 00:53:22;;;;;;;3.92;2.35;;;7.00;99.90;;;;;;5056080;28;20205;-76
2023/10/15 00:55:53;;;;;;;4.15;2.28;;;7.00;99.90;;;;;;5056802;28;20206;-75
2023/10/15 00:59:08;;;;;;;3.25;2.20;;;6.90;99.90;;;;;;5055407;28;20261;-75
2023/10/15 01:33:50;;;;;;;4.50;2.40;;;6.70;99.90;;;;;;4841983;29;20749;-74
2023/10/15 01:36:21;;;;;;;6.80;2.65;;;6.60;99.90;;;;;;4889688;29;20221;-74
2023/10/15 01:38:55;;;;;;;6.10;2.90;;;6.50;99.90;;;;;;4958364;29;20158;-75
2023/10/15 01:41:25;;;;;;;5.28;2.75;;;6.50;99.90;;;;;;4941759;29;20169;-74
2023/10/15 01:43:56;;;;;;;5.03;2.40;;;6.40;99.90;;;;;;4958145;29;20174;-74
2023/10/15 01:49:08;;;;;;;5.88;2.88;;;6.30;99.90;;;;;;4958493;29;20224;-74
2023/10/15 01:51:39;;;;;;;11.00;3.28;;;6.30;99.90;;;;;;4941679;29;20192;-74
2023/10/15 01:54:09;;;;;;;7.75;2.70;;;6.20;99.90;;;;;;4941385;29;20173;-74
2023/10/15 01:56:38;;;;;;;7.07;2.70;;;6.20;99.90;;;;;;4957234;28;20216;-74
2023/10/15 01:59:08;;;;;;;7.27;3.00;;;6.10;99.90;;;;;;4940627;29;20177;-74
2023/10/15 02:01:40;;;;;;;6.17;3.33;;;6.10;99.90;;;;;;4956792;28;20182;-74
2023/10/15 02:17:18;;;;;;;8.05;3.05;;;6.20;99.90;;;;;;4917156;29;20203;-74
2023/10/15 02:19:44;;;;;;;8.63;3.03;;;6.20;99.90;;;;;;4920482;29;20198;-75
2023/10/15 02:22:12;;;;;;;7.10;3.33;;;6.10;99.90;;;;;;4920571;29;20680;-75
2023/10/15 02:24:38;;;;;;;7.05;3.03;;;6.00;99.90;;;;;;4956517;28;20725;-75
2023/10/15 02:27:08;;;;;;;7.88;2.92;;;6.10;99.90;;;;;;4959491;28;20204;-75
2023/10/15 02:29:35;;;;;;;6.80;3.22;;;6.00;99.90;;;;;;4960003;28;20276;-75
2023/10/15 02:32:21;;;;;;;7.07;2.97;;;6.00;99.90;;;;;;4973407;28;20177;-75
2023/10/15 02:34:50;;;;;;;8.63;3.27;;;6.00;99.90;;;;;;4979551;28;20176;-75
2023/10/15 02:37:23;;;;;;;4.82;2.75;;;6.00;99.90;;;;;;4978746;28;20200;-75
2023/10/15 02:39:51;;;;;;;8.30;3.20;;;6.00;99.90;;;;;;4979304;28;20176;-75
2023/10/15 02:42:21;;;;;;;11.30;3.30;;;6.00;99.90;;;;;;4978600;28;20244;-75
2023/10/15 02:44:50;;;;;;;5.65;3.17;;;6.00;99.90;;;;;;4978798;28;20187;-75
2023/10/15 02:47:28;;;;;;;7.88;3.22;;;6.00;99.90;;;;;;4978561;28;20732;-75
2023/10/15 02:50:01;;;;;;;9.73;3.55;;;6.00;99.90;;;;;;4978604;28;20176;-75
2023/10/15 02:52:43;;;;;;;8.73;3.13;;;6.00;99.90;;;;;;4977635;28;20207;-74
2023/10/15 02:55:12;;;;;;;6.47;3.13;;;6.10;99.90;;;;;;4979009;28;20179;-74
2023/10/15 02:57:39;;;;;;;7.45;3.20;;;6.10;99.90;;;;;;4978092;28;20195;-74
2023/10/15 03:00:18;;;;;;;7.20;3.13;;;6.10;99.90;;;;;;4977723;28;20176;-74
2023/10/15 03:02:45;;;;;;;7.85;3.10;;;6.10;99.90;;;;;;4995110;28;20167;-74
2023/10/15 03:05:13;;;;;;;7.75;3.35;;;6.10;99.90;;;;;;4977555;28;20210;-74
2023/10/15 03:08:07;;;;;;;8.30;3.08;;;6.10;99.90;;;;;;4977661;28;20230;-74
2023/10/15 03:10:55;;;;;;;11.88;3.08;;;6.00;99.90;;;;;;4977813;28;20219;-74
2023/10/15 03:13:21;;;;;;;8.80;3.30;;;5.90;99.90;;;;;;4977383;28;20215;-74
2023/10/15 03:15:49;;;;;;;7.80;2.97;;;5.90;99.90;;;;;;4977358;28;20200;-74
2023/10/15 03:18:24;;;;;;;10.43;3.10;;;5.90;99.90;;;;;;4977538;28;20172;-74
2023/10/15 03:20:57;;;;;;;8.07;2.90;;;5.80;99.90;;;;;;4977582;28;20230;-74
2023/10/15 03:23:22;;;;;;;10.83;3.47;;;5.80;99.90;;;;;;4978950;28;20179;-74
2023/10/15 03:25:57;;;;;;;10.18;3.13;;;5.80;99.90;;;;;;4978753;28;20197;-74
2023/10/15 03:28:26;;;;;;;8.53;2.87;;;5.70;99.90;;;;;;4978647;28;20178;-74
2023/10/15 03:30:55;;;;;;;11.10;3.80;;;5.60;99.90;;;;;;4978447;28;20180;-74
2023/10/15 03:33:29;;;;;;;8.57;3.20;;;5.60;99.90;;;;;;4977919;28;20721;-74
2023/10/15 03:35:55;;;;;;;8.37;3.10;;;5.50;99.90;;;;;;4978198;28;20588;-74
2023/10/15 03:38:32;;;;;;;7.30;3.40;;;5.40;99.90;;;;;;4978064;28;20187;-74
2023/10/15 03:41:11;;;;;;;8.00;3.20;;;5.40;99.90;;;;;;4977814;28;20225;-74
2023/10/15 03:43:36;;;;;;;5.53;2.80;;;5.40;99.90;;;;;;4977963;28;20258;-74
2023/10/15 03:46:17;;;;;;;9.10;3.20;;;5.40;99.90;;;;;;4977804;28;20289;-74
2023/10/15 03:48:50;;;;;;;6.32;3.03;;;5.40;99.90;;;;;;4976860;28;20169;-74
2023/10/15 03:51:20;;;;;;;12.00;3.40;;;5.30;99.90;;;;;;4977669;28;20177;-74
2023/10/15 03:53:49;;;;;;;6.37;3.00;;;5.30;99.90;;;;;;4994994;28;20195;-74
2023/10/15 03:56:19;;;;;;;9.23;3.10;;;5.20;99.90;;;;;;4976551;28;20196;-74
2023/10/15 03:58:51;;;;;;;7.93;3.47;;;5.10;99.90;;;;;;4976669;28;20179;-73
2023/10/15 04:04:39;;;;;;;8.60;3.57;;;5.10;99.90;;;;;;4994397;28;20163;-74
2023/10/15 04:07:18;;;;;;;9.33;3.13;;;5.10;99.90;;;;;;4976881;28;20203;-74
2023/10/15 04:09:44;;;;;;;8.63;3.70;;;5.20;99.90;;;;;;4993862;28;20199;-74
2023/10/15 04:12:10;;;;;;;10.60;3.83;;;5.00;99.90;;;;;;4976741;28;20200;-74
2023/10/15 04:14:35;;;;;;;4.93;3.30;;;4.90;99.90;;;;;;4976905;28;20200;-73
2023/10/15 04:17:01;;;;;;;7.13;3.67;;;4.90;99.90;;;;;;4993795;28;20199;-73
2023/10/15 04:19:27;;;;;;;7.17;3.10;;;4.80;99.90;;;;;;4979111;28;20172;-73
2023/10/15 04:21:59;;;;;;;6.93;3.43;;;4.80;99.90;;;;;;4997987;28;20176;-73
2023/10/15 04:24:36;;;;;;;6.87;3.90;;;4.80;99.90;;;;;;4998539;28;20152;-75
2023/10/15 04:27:03;;;;;;;7.80;3.77;;;4.80;99.90;;;;;;4981995;28;20203;-75
2023/10/15 04:29:30;;;;;;;7.90;3.53;;;4.80;99.90;;;;;;4980953;28;20179;-75
2023/10/15 04:32:04;;;;;;;9.70;3.50;;;4.90;99.90;;;;;;4981015;28;20172;-73
2023/10/15 04:34:33;;;;;;;11.60;4.20;;;4.90;99.90;;;;;;4981352;28;20164;-75
2023/10/15 04:37:10;;;;;;;6.83;3.23;;;4.90;99.90;;;;;;4981412;28;20196;-75
2023/10/15 04:39:45;;;;;;;4.90;3.20;;;5.00;99.90;;;;;;4981549;28;20183;-75
2023/10/15 04:42:20;;;;;;;12.00;4.03;;;4.90;99.90;;;;;;4981556;28;20176;-75
2023/10/15 04:44:46;;;;;;;5.80;3.40;;;4.80;99.90;;;;;;4999047;28;20195;-75
2023/10/15 04:47:12;;;;;;;6.97;3.80;;;4.60;99.90;;;;;;4980988;28;20227;-75
2023/10/15 04:49:58;;;;;;;7.67;3.80;;;4.50;99.90;;;;;;4981413;28;20191;-75
2023/10/15 04:52:25;;;;;;;8.07;4.00;;;4.30;99.90;;;;;;4998870;28;20263;-75
2023/10/15 04:54:55;;;;;;;9.50;4.07;;;4.30;99.90;;;;;;4981579;28;20242;-75
2023/10/15 04:57:21;;;;;;;10.37;4.03;;;4.20;99.90;;;;;;4997750;28;20231;-73
2023/10/15 04:59:47;;;;;;;7.40;3.90;;;4.30;99.90;;;;;;4980697;28;20579;-73
2023/10/15 05:02:12;;;;;;;10.00;4.53;;;4.30;99.90;;;;;;4980833;28;20234;-73
2023/10/15 05:04:38;;;;;;;7.60;4.13;;;4.30;99.90;;;;;;4981551;28;20652;-74
2023/10/15 05:07:03;;;;;;;11.57;4.37;;;4.30;99.90;;;;;;4980727;28;20227;-74
2023/10/15 05:09:31;;;;;;;12.30;3.70;;;4.30;99.90;;;;;;4980811;28;20203;-74
2023/10/15 05:11:58;;;;;;;9.03;3.70;;;4.20;99.90;;;;;;4997979;28;20176;-74
2023/10/15 05:14:23;;;;;;;6.70;3.53;;;4.30;99.90;;;;;;4981100;28;20176;-74
2023/10/15 05:16:49;;;;;;;8.27;3.80;;;4.30;99.90;;;;;;4980828;28;20207;-74
2023/10/15 05:19:19;;;;;;;8.43;4.00;;;4.20;99.90;;;;;;4980959;28;20184;-74
2023/10/15 05:21:46;;;;;;;11.40;6.90;;;4.20;99.90;;;;;;4980786;28;20192;-74
2023/10/15 05:24:18;;;;;;;11.17;7.30;;;4.30;99.90;;;;;;4980549;28;20533;-74
2023/10/15 05:26:50;;;;;;;11.40;6.60;;;4.30;99.90;;;;;;4998045;28;20258;-74
2023/10/15 05:29:16;;;;;;;10.97;6.20;;;4.30;99.90;;;;;;4980619;28;20190;-74
2023/10/15 05:31:42;;;;;;;11.20;5.00;;;4.20;99.90;;;;;;4979701;28;20180;-75
2023/10/15 05:34:08;;;;;;;12.40;4.90;;;4.20;99.90;;;;;;4997609;28;20192;-74
2023/10/15 05:36:38;;;;;;;8.10;5.43;;;4.20;99.90;;;;;;4980015;28;20204;-74
2023/10/15 05:39:09;;;;;;;9.67;5.77;;;4.20;99.90;;;;;;4980014;28;20267;-76
2023/10/15 05:41:37;;;;;;;8.57;5.10;;;4.20;99.90;;;;;;4980250;28;20263;-75
2023/10/15 05:44:02;;;;;;;11.33;4.67;;;4.20;99.90;;;;;;4980093;28;20184;-74
2023/10/15 05:46:28;;;;;;;10.60;4.70;;;4.00;99.90;;;;;;4979727;28;20204;-75
2023/10/15 05:48:54;;;;;;;11.13;4.77;;;4.00;99.90;;;;;;4979860;28;20203;-75
2023/10/15 05:51:20;;;;;;;12.37;5.80;;;4.10;99.90;;;;;;4997171;28;20725;-75
2023/10/15 05:53:47;;;;;;;10.17;5.40;;;4.20;99.90;;;;;;4980261;28;20208;-75
2023/10/15 05:56:13;;;;;;;11.67;5.37;;;4.10;99.90;;;;;;4979360;28;20661;-74
2023/10/15 05:58:39;;;;;;;9.10;5.70;;;4.20;99.90;;;;;;4970511;28;20168;-74
2023/10/15 06:01:05;;;;;;;10.83;5.70;;;4.10;99.90;;;;;;4986784;28;20257;-74
2023/10/15 06:03:40;;;;;;;12.57;5.60;;;4.20;99.90;;;;;;4966098;28;20239;-74
2023/10/15 06:06:06;;;;;;;14.30;6.07;;;4.30;99.90;;;;;;4979455;28;20195;-74
2023/10/15 06:08:31;;;;;;;14.93;7.03;;;4.30;99.90;;;;;;4970318;28;20188;-75
2023/10/15 06:10:57;;;;;;;13.20;7.60;;;4.40;99.90;;;;;;4960547;28;20272;-73
2023/10/15 06:13:23;;;;;;;13.10;6.43;;;4.50;99.90;;;;;;4959494;28;20201;-73
2023/10/15 06:15:50;;;;;;;12.87;6.33;;;4.40;99.90;;;;;;4966571;28;20197;-73
2023/10/15 06:18:16;;;;;;;13.10;6.40;;;4.40;99.90;;;;;;4995902;28;20238;-74
2023/10/15 06:20:41;;;;;;;9.00;6.00;;;4.50;99.90;;;;;;4968823;28;20181;-75
2023/10/15 06:23:08;;;;;;;11.80;5.63;;;4.60;99.90;;;;;;4960649;28;20185;-75
2023/10/15 06:25:35;;;;;;;11.63;5.27;;;4.60;99.90;;;;;;4985757;28;20172;-75
2023/10/15 06:28:01;;;;;;;8.37;4.60;;;4.70;99.90;;;;;;4979356;28;20184;-75
2023/10/15 06:30:27;;;;;;;9.93;5.40;;;4.90;99.90;;;;;;4960103;28;20187;-75
2023/10/15 06:32:53;;;;;;;8.83;4.70;;;5.00;99.90;;;;;;4965329;28;20200;-74
2023/10/15 06:35:20;;;;;;;9.87;4.50;;;5.10;99.90;;;;;;4979000;28;20176;-75
2023/10/15 06:37:50;;;;;;;12.97;5.00;;;5.20;99.90;;;;;;4996185;28;20738;-75
2023/10/15 06:40:16;;;;;;;7.37;4.33;;;5.20;99.90;;;;;;4973408;28;20180;-75
2023/10/15 06:42:43;;;;;;;15.27;5.27;;;5.30;99.90;;;;;;4958373;28;20273;-74
2023/10/15 06:45:10;;;;;;;18.23;9.63;;;5.30;99.90;;;;;;4960021;28;20224;-73
2023/10/15 06:47:36;;;;;;;12.20;5.27;;;5.50;99.90;;;;;;4978154;28;20216;-72
2023/10/15 06:50:06;;;;;;;11.43;4.70;;;5.80;99.90;;;;;;4977916;28;20678;-72
2023/10/15 06:52:39;;;;;;;7.07;4.30;;;5.90;99.90;;;;;;4977863;28;20235;-73
2023/10/15 06:55:07;;;;;;;10.70;5.03;;;6.00;99.90;;;;;;4977559;28;20187;-74
2023/10/15 06:57:33;;;;;;;9.67;4.47;;;6.10;99.90;;;;;;4977630;28;20264;-73
2023/10/15 06:59:59;;;;;;;9.17;4.53;;;6.20;99.90;;;;;;4977754;28;20204;-73
2023/10/15 07:02:28;;;;;;;7.25;4.20;;;6.20;99.90;;;;;;4978162;28;20188;-73
2023/10/15 07:04:55;;;;;;;12.05;4.55;;;6.40;99.90;;;;;;4994717;28;20176;-74
2023/10/15 07:07:21;;;;;;;8.35;3.80;;;6.60;99.90;;;;;;4994792;28;20203;-74
2023/10/15 07:09:46;;;;;;;8.43;4.05;;;6.70;99.90;;;;;;4977742;28;20209;-74
2023/10/15 07:12:12;;;;;;;9.10;3.90;;;6.80;99.90;;;;;;4966657;28;20216;-73
2023/10/15 07:14:39;;;;;;;10.73;3.63;;;6.90;99.90;;;;;;4970313;28;20176;-74
2023/10/15 07:17:05;;;;;;;11.45;3.30;;;7.10;99.90;;;;;;4977414;28;20196;-73
2023/10/15 07:19:30;;;;;;;11.88;3.45;;;7.20;99.90;;;;;;4977338;28;20172;-73
2023/10/15 07:21:56;;;;;;;11.60;3.65;;;7.40;99.90;;;;;;4978504;28;20180;-75
2023/10/15 07:24:22;;;;;;;10.00;3.47;;;7.50;99.90;;;;;;4978905;28;20176;-75
2023/10/15 07:26:48;;;;;;;9.65;3.38;;;7.50;99.90;;;;;;4978806;28;20199;-75
2023/10/15 07:29:13;;;;;;;9.18;3.55;;;7.60;99.90;;;;;;4980353;28;20180;-75
2023/10/15 07:31:39;;;;;;;7.22;2.65;;;7.70;99.90;;;;;;4978684;28;20234;-75
2023/10/15 07:34:05;;;;;;;10.13;2.80;;;7.70;99.90;;;;;;4979277;28;20199;-74
2023/10/15 07:36:32;;;;;;;8.95;3.50;;;7.90;99.90;;;;;;4978476;28;20203;-75
2023/10/15 07:38:59;;;;;;;8.00;3.17;;;7.90;99.90;;;;;;4978376;28;20172;-74
2023/10/15 07:41:25;;;;;;;7.40;2.92;;;8.10;99.90;;;;;;4987853;28;20180;-74
2023/10/15 07:43:51;;;;;;;9.80;3.50;;;8.20;99.90;;;;;;4963743;28;20716;-75
2023/10/15 07:46:19;;;;;;;10.20;3.15;;;8.40;99.90;;;;;;4978447;28;20204;-74
2023/10/15 07:48:45;;;;;;;8.32;3.13;;;8.50;99.90;;;;;;4977504;28;20635;-74
2023/10/15 07:51:11;;;;;;;8.82;2.88;;;8.60;99.90;;;;;;4994991;28;20172;-74
2023/10/15 07:53:36;;;;;;;6.90;2.70;;;8.70;99.90;;;;;;4976735;28;20203;-74
2023/10/15 07:56:34;;;;;;;8.32;2.70;;;8.80;99.90;;;;;;4977025;28;20231;-74
2023/10/15 07:59:04;;;;;;;8.55;3.03;;;8.90;99.90;;;;;;4978949;28;20172;-73
2023/10/15 08:02:12;;;;;;;6.70;2.75;;;8.90;99.90;;;;;;4994058;28;20173;-73
2023/10/15 08:04:39;;;;;;;11.95;3.20;;;8.90;99.90;;;;;;4977414;28;20279;-73
2023/10/15 08:07:08;;;;;;;10.30;3.33;;;9.00;99.90;;;;;;4977124;28;20215;-73
2023/10/15 08:09:34;;;;;;;9.02;2.80;;;9.10;99.90;;;;;;4976628;28;20204;-79
2023/10/15 08:11:59;;;;;;;9.18;2.58;;;9.20;99.90;;;;;;4977928;28;20190;-75
2023/10/15 08:14:25;;;;;;;7.30;2.38;;;9.30;99.90;;;;;;4977922;28;20172;-73
2023/10/15 08:20:27;;;;;;;9.32;3.03;;;9.70;99.90;;;;;;4994233;28;20176;-74
2023/10/15 08:23:01;;;;;;;8.52;2.65;;;9.80;99.90;;;;;;4976797;28;20188;-74
2023/10/15 08:25:26;;;;;;;6.72;2.20;;;9.80;99.90;;;;;;4977013;28;20176;-74
2023/10/15 08:27:52;;;;;;;7.10;2.33;;;9.90;99.90;;;;;;4977373;28;20187;-78
2023/10/15 08:30:18;;;;;;;7.50;2.25;;;9.90;99.90;;;;;;4994590;28;20181;-77
2023/10/15 08:32:46;;;;;;;8.93;2.45;;;10.10;99.90;;;;;;4977339;28;20218;-78
2023/10/15 08:35:15;;;;;;;6.03;2.20;;;10.20;99.90;;;;;;4977195;28;20239;-78
2023/10/15 08:37:45;;;;;;;8.98;2.63;;;10.30;99.90;;;;;;4977584;28;20202;-77
2023/10/15 08:40:17;;;;;;;9.32;2.60;;;10.60;99.90;;;;;;4977471;28;20185;-77
2023/10/15 08:42:55;;;;;;;6.13;2.53;;;11.00;99.90;;;;;;4978223;28;20523;-78
2023/10/15 08:45:23;;;;;;;7.82;2.35;;;11.30;99.90;;;;;;4977252;28;20216;-78
2023/10/15 08:47:50;;;;;;;8.18;2.67;;;11.60;99.90;;;;;;4994430;28;20180;-76
2023/10/15 08:50:22;;;;;;;6.80;2.20;;;11.60;99.90;;;;;;4976330;28;20216;-75
2023/10/15 08:52:52;;;;;;;5.05;2.13;;;11.70;99.90;;;;;;4976168;28;20702;-76
2023/10/15 08:55:27;;;;;;;7.07;2.35;;;11.80;99.90;;;;;;4977003;28;20184;-75
2023/10/15 08:57:54;;;;;;;12.00;2.10;;;12.00;99.90;;;;;;4976238;28;20179;-76
2023/10/15 09:00:30;;;;;;;5.15;2.25;;;12.20;99.90;;;;;;4976290;28;20168;-76
2023/10/15 09:02:57;;;;;;;7.07;2.45;;;12.30;99.90;;;;;;4993520;28;20199;-76
2023/10/15 09:05:23;;;;;;;7.90;2.25;;;12.50;99.90;;;;;;4976727;28;20263;-76
2023/10/15 09:07:52;;;;;;;8.70;2.50;;;12.50;99.90;;;;;;4995246;28;20180;-76
2023/10/15 09:10:18;;;;;;;3.75;2.25;;;12.60;99.90;;;;;;4978870;28;20199;-76
2023/10/15 09:12:44;;;;;;;5.50;2.10;;;12.40;99.90;;;;;;4978868;28;20214;-76
2023/10/15 09:15:16;;;;;;;7.93;2.08;;;12.30;99.90;;;;;;4978581;28;20275;-76
2023/10/15 09:17:46;;;;;;;8.20;2.28;;;12.30;99.90;;;;;;4979074;28;20212;-76
2023/10/15 09:20:12;;;;;;;10.57;2.10;;;12.20;99.90;;;;;;4979652;28;20172;-76
2023/10/15 09:22:39;;;;;;;6.43;2.10;;;12.10;99.90;;;;;;4979500;28;20263;-76
2023/10/15 09:25:05;;;;;;;4.07;2.35;;;11.90;99.90;;;;;;4979549;28;20176;-76
2023/10/15 09:27:31;;;;;;;5.60;2.22;;;11.60;99.90;;;;;;4979437;28;20235;-74
2023/10/15 09:30:18;;;;;;;6.43;2.90;;;11.30;99.90;;;;;;4996887;28;20187;-74
2023/10/15 09:32:45;;;;;;;5.82;3.33;;;11.10;99.90;;;;;;4996861;28;20188;-74
2023/10/15 09:35:13;;;;;;;14.15;9.25;;;11.10;99.90;;;;;;4979435;28;20187;-74
2023/10/15 09:37:39;;;;;;;4.30;2.42;;;11.20;99.90;;;;;;4979984;28;20200;-78
2023/10/15 09:40:19;;;;;;;5.43;2.30;;;11.30;99.90;;;;;;4998228;28;20165;-73
2023/10/15 09:42:47;;;;;;;6.25;3.45;;;11.30;99.90;;;;;;4979223;28;20173;-73
2023/10/15 09:45:18;;;;;;;4.07;1.90;;;11.30;99.90;;;;;;4978416;28;20647;-73
2023/10/15 09:47:48;;;;;;;4.90;2.25;;;11.20;99.90;;;;;;4979266;28;20208;-73
2023/10/15 09:50:17;;;;;;;6.03;2.60;;;11.00;99.90;;;;;;4979915;28;20177;-72
2023/10/15 09:52:46;;;;;;;4.60;1.98;;;11.00;99.90;;;;;;4978964;28;20206;-72
2023/10/15 09:55:12;;;;;;;6.22;2.58;;;11.00;99.90;;;;;;4978700;28;20180;-73
2023/10/15 09:57:39;;;;;;;7.25;2.47;;;10.90;99.90;;;;;;4979059;28;20758;-73
2023/10/15 10:00:10;;;;;;;4.63;2.47;;;10.80;99.90;;;;;;4978897;28;20203;-75
2023/10/15 10:02:47;;;;;;;4.80;2.20;;;11.00;99.90;;;;;;4996991;28;20157;-73
2023/10/15 10:05:44;;;;;;;3.60;2.03;;;11.30;99.90;;;;;;4996035;28;20168;-73
2023/10/15 10:08:31;;;;;;;5.65;2.38;;;11.50;99.90;;;;;;4995906;28;20168;-73
2023/10/15 10:11:09;;;;;;;6.40;3.70;;;11.50;99.60;;;;;;4978589;28;20215;-73
2023/10/15 10:13:38;;;;;;;8.25;3.85;;;11.60;99.00;;;;;;4978653;28;20238;-73
2023/10/15 10:16:11;;;;;;;9.60;6.40;;;11.50;98.80;;;;;;4995519;28;20247;-73
2023/10/15 10:18:37;;;;;;;5.13;3.50;;;11.60;99.00;;;;;;4978579;28;20236;-73
2023/10/15 10:21:11;;;;;;;4.88;2.53;;;11.60;99.00;;;;;;4978427;28;20694;-73
2023/10/15 10:23:38;;;;;;;2.25;1.90;;;11.40;98.40;;;;;;4995653;28;20242;-73
2023/10/15 10:26:12;;;;;;;2.03;1.55;;;11.30;98.50;;;;;;4978798;28;20204;-73
2023/10/15 10:28:38;;;;;;;3.53;2.33;;;11.30;99.00;;;;;;4979325;28;20176;-73
2023/10/15 10:31:07;;;;;;;4.25;1.80;;;11.50;99.60;;;;;;4979162;28;20246;-73
2023/10/15 10:33:44;;;;;;;2.45;1.90;;;11.40;98.70;;;;;;4978253;28;20200;-73
2023/10/15 10:36:21;;;;;;;2.00;1.73;;;11.40;98.50;;;;;;4978330;28;20196;-74
2023/10/15 10:39:13;;;;;;;2.33;1.80;;;11.30;98.40;;;;;;4978922;28;20175;-74
2023/10/15 10:41:48;;;;;;;2.72;1.88;;;11.40;99.00;;;;;;4975857;28;20193;-74
2023/10/15 10:44:22;;;;;;;2.38;1.50;;;11.80;98.80;;;;;;4977950;28;20234;-74
2023/10/15 10:46:50;;;;;;;1.70;1.60;;;12.00;98.20;;;;;;4977518;28;20290;-74
2023/10/15 10:49:18;;;;;;;2.85;1.90;;;12.10;98.00;;;;;;4978212;28;20184;-74
2023/10/15 10:52:12;;;;;;;3.60;1.98;;;11.80;98.40;;;;;;4995346;28;20181;-74
2023/10/15 10:54:38;;;;;;;2.58;1.80;;;11.90;97.50;;;;;;4977842;28;20180;-74
2023/10/15 10:57:07;;;;;;;2.45;1.80;;;11.80;97.90;;;;;;4977716;28;20192;-74
2023/10/15 10:59:33;;;;;;;3.08;1.92;;;11.70;97.60;;;;;;4977447;28;20554;-74
2023/10/15 11:02:00;;;;;;;3.53;1.88;;;11.90;98.20;;;;;;4977651;28;20184;-74
2023/10/15 11:04:26;;;;;;;2.58;1.70;;;12.00;98.00;;;;;;4978229;28;20184;-74
2023/10/15 11:06:52;;;;;;;2.00;1.70;;;12.20;97.30;;;;;;4979295;28;20555;-74
2023/10/15 11:09:19;;;;;;;2.97;1.70;;;12.30;96.90;;;;;;4996218;28;20219;-74
2023/10/15 11:11:56;;;;;;;2.75;1.58;;;12.20;96.90;;;;;;4978491;28;20622;-74
2023/10/15 11:14:27;;;;;;;2.72;1.73;;;12.40;96.30;;;;;;4978154;28;20211;-74
2023/10/15 11:16:57;;;;;;;2.58;1.60;;;12.30;96.60;;;;;;4978663;28;20207;-74
2023/10/15 11:19:25;;;;;;;3.13;1.80;;;12.30;97.00;;;;;;4978851;28;20203;-76
2023/10/15 11:21:52;;;;;;;5.88;2.58;;;12.40;96.90;;;;;;4979062;28;20239;-76
2023/10/15 11:24:20;;;;;;;9.90;9.00;;;12.80;96.80;;;;;;4978653;28;20175;-75
2023/10/15 11:26:46;;;;;;;4.22;3.50;;;12.70;95.60;;;;;;4978545;28;20214;-75
2023/10/15 11:29:22;;;;;;;2.75;1.95;;;12.60;95.50;;;;;;4978197;28;20180;-76
2023/10/15 11:31:50;;;;;;;2.75;1.80;;;12.50;95.60;;;;;;4977147;28;20168;-73
2023/10/15 11:34:19;;;;;;;2.42;1.58;;;12.40;95.30;;;;;;4977152;28;20207;-73
2023/10/15 11:36:48;;;;;;;3.05;2.00;;;12.20;95.30;;;;;;4994411;28;20195;-73
2023/10/15 11:39:18;;;;;;;6.63;3.45;;;12.30;95.70;;;;;;4978550;28;20204;-74
2023/10/15 11:41:51;;;;;;;4.53;3.70;;;12.50;95.90;;;;;;4976801;28;20231;-74
2023/10/15 11:44:18;;;;;;;3.72;2.00;;;12.60;95.30;;;;;;4977845;28;20184;-74
2023/10/15 11:46:46;;;;;;;3.22;1.90;;;12.60;95.20;;;;;;4977392;28;20246;-74
2023/10/15 11:49:12;;;;;;;5.63;1.75;;;12.50;95.30;;;;;;4976284;28;20192;-74
2023/10/15 11:51:39;;;;;;;3.22;1.60;;;12.40;95.30;;;;;;4977029;28;20180;-74
2023/10/15 11:54:09;;;;;;;1.90;1.30;;;12.30;95.30;;;;;;4976614;28;20208;-75
2023/10/15 11:56:37;;;;;;;2.58;1.30;;;12.20;94.80;;;;;;4977154;28;20196;-74
2023/10/15 11:59:03;;;;;;;3.42;1.45;;;11.90;94.80;;;;;;4977341;28;20183;-75
2023/10/15 12:01:29;;;;;;;1.30;1.20;;;11.60;95.70;;;;;;4976838;28;20172;-74
2023/10/15 12:04:00;;;;;;;1.73;1.27;;;11.30;95.90;;;;;;4976886;28;20180;-74
2023/10/15 12:06:26;;;;;;;4.60;1.77;;;10.70;99.90;;;;;;4977267;28;20204;-74
2023/10/15 12:08:52;;;;;;;4.15;1.70;;;9.90;99.90;;;;;;4976809;28;20539;-74
2023/10/15 12:11:18;;;;;;;3.72;1.05;;;9.60;99.90;;;;;;4976673;28;20176;-74
2023/10/15 12:13:47;;;;;;;1.85;1.20;;;9.50;99.90;;;;;;4976026;28;20291;-74
2023/10/15 12:16:13;;;;;;;1.02;0.85;;;9.50;99.90;;;;;;4976786;28;20231;-74
2023/10/15 12:18:39;;;;;;;1.08;0.80;;;9.80;99.90;;;;;;4977442;28;20185;-74
2023/10/15 12:21:06;;;;;;;1.65;0.95;;;10.10;99.90;;;;;;4993625;28;20206;-74
2023/10/15 12:23:31;;;;;;;1.85;1.13;;;10.10;99.90;;;;;;4976382;28;20176;-73
2023/10/15 12:25:57;;;;;;;1.20;1.10;;;9.90;99.90;;;;;;4976370;28;20200;-74
2023/10/15 12:28:23;;;;;;;1.65;0.98;;;9.70;99.90;;;;;;4976635;28;20210;-74
2023/10/15 12:30:48;;;;;;;2.63;1.30;;;9.60;99.90;;;;;;4976859;28;20562;-74
2023/10/15 12:33:15;;;;;;;1.35;1.10;;;9.60;99.90;;;;;;4976476;28;20296;-74
2023/10/15 12:35:41;;;;;;;3.13;1.15;;;9.80;99.90;;;;;;4994046;28;20175;-73
2023/10/15 12:38:12;;;;;;;1.20;1.10;;;10.10;99.90;;;;;;4977425;28;20176;-75
2023/10/15 12:40:38;;;;;;;0.93;0.90;;;10.30;99.90;;;;;;4981704;28;20164;-75
2023/10/15 12:43:15;;;;;;;1.35;1.20;;;10.50;99.90;;;;;;4983063;28;20250;-76
2023/10/15 12:45:44;;;;;;;1.00;1.00;;;10.70;99.90;;;;;;4983260;28;20172;-75
2023/10/15 12:48:10;;;;;;;3.10;2.83;;;10.80;99.90;;;;;;4999003;28;20172;-75
2023/10/15 12:50:36;;;;;;;3.63;2.67;;;10.70;99.90;;;;;;4999089;28;20180;-75
2023/10/15 12:53:02;;;;;;;3.22;1.90;;;10.70;99.90;;;;;;4980222;28;20200;-73
2023/10/15 12:55:28;;;;;;;1.30;1.27;;;10.70;99.90;;;;;;4980187;28;20258;-73
2023/10/15 12:57:54;;;;;;;1.30;1.20;;;10.70;99.90;;;;;;4980176;28;20181;-73
2023/10/15 13:00:26;;;;;;;1.60;1.27;;;10.90;99.90;;;;;;4980887;28;20172;-73
2023/10/15 13:02:53;;;;;;;2.22;1.08;;;11.00;99.90;;;;;;4980149;28;20180;-73
2023/10/15 13:05:21;;;;;;;1.35;1.13;;;11.20;99.90;;;;;;4997525;28;20176;-74
2023/10/15 13:07:47;;;;;;;1.27;1.15;;;11.10;99.90;;;;;;4997204;28;20204;-74
2023/10/15 13:10:13;;;;;;;1.13;1.00;;;11.20;99.90;;;;;;4979485;28;20286;-74
2023/10/15 13:12:42;;;;;;;1.40;1.30;;;11.40;99.90;;;;;;4997159;28;20236;-74
2023/10/15 13:15:08;;;;;;;2.17;1.33;;;11.80;99.90;;;;;;4980432;28;20191;-74
2023/10/15 13:17:34;;;;;;;4.25;3.83;;;12.00;99.90;;;;;;4979599;28;20203;-74
2023/10/15 13:20:04;;;;;;;5.63;4.50;;;12.00;99.90;;;;;;4980722;28;20238;-76
2023/10/15 13:22:30;;;;;;;3.13;2.00;;;12.00;99.90;;;;;;4979225;28;20173;-74
2023/10/15 13:24:55;;;;;;;1.70;1.27;;;12.00;98.70;;;;;;4979431;28;20191;-74
2023/10/15 13:27:21;;;;;;;2.08;1.17;;;11.90;98.00;;;;;;4979927;28;20562;-74
2023/10/15 13:29:47;;;;;;;2.42;0.95;;;11.90;98.10;;;;;;4979519;28;20188;-74
2023/10/15 13:32:13;;;;;;;1.65;1.10;;;11.90;96.70;;;;;;4980160;28;20239;-74
2023/10/15 13:34:40;;;;;;;1.95;1.13;;;11.90;95.50;;;;;;4980926;28;20199;-77
2023/10/15 13:37:06;;;;;;;3.53;1.40;;;11.90;96.20;;;;;;4981996;28;20247;-76
2023/10/15 13:39:32;;;;;;;1.95;1.15;;;12.00;96.70;;;;;;4981443;28;20212;-75
2023/10/15 13:41:59;;;;;;;1.20;1.10;;;12.10;97.70;;;;;;4999357;28;20196;-75
2023/10/15 13:44:25;;;;;;;2.70;1.13;;;12.00;97.00;;;;;;4982054;28;20254;-75
2023/10/15 13:46:53;;;;;;;2.15;1.40;;;12.10;96.80;;;;;;4982652;28;20683;-75
2023/10/15 13:49:19;;;;;;;1.48;1.00;;;12.00;97.40;;;;;;4980202;28;20184;-75
2023/10/15 13:51:46;;;;;;;2.08;1.10;;;12.00;96.70;;;;;;4996684;28;20231;-74
2023/10/15 13:54:13;;;;;;;1.40;1.27;;;12.00;96.40;;;;;;4978851;28;20239;-73
2023/10/15 13:56:41;;;;;;;2.85;1.00;;;12.20;97.70;;;;;;4978790;28;20196;-75